sensor_id;sensor_type;location;lat;lon;timestamp;P1;durP1;ratioP1;P2;durP2;ratioP2
54464;SDS011;40374;49.480;20.016;2022-12-29T00:02:00;161.00;;;56.42;;
54464;SDS011;40374;49.480;20.016;2022-12-29T00:04:28;131.13;;;48.70;;
54464;SDS011;40374;49.480;20.016;2022-12-29T00:06:55;136.95;;;52.20;;
54464;SDS011;40374;49.480;20.016;2022-12-29T00:09:22;152.68;;;57.30;;
54464;SDS011;40374;49.480;20.016;2022-12-29T00:11:50;139.27;;;52.83;;
54464;SDS011;40374;49.480;20.016;2022-12-29T00:14:17;134.90;;;51.50;;
54464;SDS011;40374;49.480;20.016;2022-12-29T00:17:04;143.55;;;55.75;;
54464;SDS011;40374;49.480;20.016;2022-12-29T00:19:31;172.20;;;60.22;;
54464;SDS011;40374;49.480;20.016;2022-12-29T00:22:17;125.20;;;45.15;;
54464;SDS011;40374;49.480;20.016;2022-12-29T00:25:04;145.88;;;49.90;;
54464;SDS011;40374;49.480;20.016;2022-12-29T00:27:51;148.95;;;51.10;;
54464;SDS011;40374;49.480;20.016;2022-12-29T00:30:38;145.35;;;52.60;;
54464;SDS011;40374;49.480;20.016;2022-12-29T00:33:31;179.40;;;62.05;;
54464;SDS011;40374;49.480;20.016;2022-12-29T00:39:02;222.57;;;76.65;;
54464;SDS011;40374;49.480;20.016;2022-12-29T00:41:51;206.63;;;73.78;;
54464;SDS011;40374;49.480;20.016;2022-12-29T00:44:40;202.85;;;69.65;;
54464;SDS011;40374;49.480;20.016;2022-12-29T00:47:08;199.63;;;71.18;;
54464;SDS011;40374;49.480;20.016;2022-12-29T00:49:36;212.55;;;78.45;;
54464;SDS011;40374;49.480;20.016;2022-12-29T00:54:33;194.48;;;71.68;;
54464;SDS011;40374;49.480;20.016;2022-12-29T00:57:06;195.15;;;73.80;;
54464;SDS011;40374;49.480;20.016;2022-12-29T00:59:38;172.73;;;67.07;;
54464;SDS011;40374;49.480;20.016;2022-12-29T01:02:07;163.75;;;64.13;;
54464;SDS011;40374;49.480;20.016;2022-12-29T01:04:35;178.25;;;65.47;;
54464;SDS011;40374;49.480;20.016;2022-12-29T01:07:03;172.15;;;66.57;;
54464;SDS011;40374;49.480;20.016;2022-12-29T01:09:31;187.23;;;66.38;;
54464;SDS011;40374;49.480;20.016;2022-12-29T01:12:17;163.07;;;58.35;;
54464;SDS011;40374;49.480;20.016;2022-12-29T01:15:06;162.55;;;62.58;;
54464;SDS011;40374;49.480;20.016;2022-12-29T01:17:35;171.05;;;62.97;;
54464;SDS011;40374;49.480;20.016;2022-12-29T01:20:02;172.38;;;62.22;;
54464;SDS011;40374;49.480;20.016;2022-12-29T01:22:30;162.40;;;63.50;;
54464;SDS011;40374;49.480;20.016;2022-12-29T01:24:58;168.50;;;61.53;;
54464;SDS011;40374;49.480;20.016;2022-12-29T01:27:25;165.80;;;63.35;;
54464;SDS011;40374;49.480;20.016;2022-12-29T01:29:53;181.27;;;69.68;;
54464;SDS011;40374;49.480;20.016;2022-12-29T01:32:20;162.88;;;62.05;;
54464;SDS011;40374;49.480;20.016;2022-12-29T01:34:50;178.15;;;68.20;;
54464;SDS011;40374;49.480;20.016;2022-12-29T01:37:17;153.55;;;59.33;;
54464;SDS011;40374;49.480;20.016;2022-12-29T01:39:45;154.32;;;58.17;;
54464;SDS011;40374;49.480;20.016;2022-12-29T01:42:17;156.57;;;56.78;;
54464;SDS011;40374;49.480;20.016;2022-12-29T01:47:19;133.65;;;48.40;;
54464;SDS011;40374;49.480;20.016;2022-12-29T01:50:01;138.73;;;50.92;;
54464;SDS011;40374;49.480;20.016;2022-12-29T01:52:33;153.10;;;55.88;;
54464;SDS011;40374;49.480;20.016;2022-12-29T01:55:05;142.13;;;54.38;;
54464;SDS011;40374;49.480;20.016;2022-12-29T01:57:37;135.45;;;48.70;;
54464;SDS011;40374;49.480;20.016;2022-12-29T02:00:08;130.65;;;48.20;;
54464;SDS011;40374;49.480;20.016;2022-12-29T02:02:44;105.20;;;41.53;;
54464;SDS011;40374;49.480;20.016;2022-12-29T02:05:20;124.32;;;45.03;;
54464;SDS011;40374;49.480;20.016;2022-12-29T02:08:19;131.20;;;46.47;;
54464;SDS011;40374;49.480;20.016;2022-12-29T02:10:49;96.38;;;38.35;;
54464;SDS011;40374;49.480;20.016;2022-12-29T02:13:23;96.68;;;36.80;;
54464;SDS011;40374;49.480;20.016;2022-12-29T02:33:07;142.20;;;48.80;;
54464;SDS011;40374;49.480;20.016;2022-12-29T02:36:07;132.02;;;49.67;;
54464;SDS011;40374;49.480;20.016;2022-12-29T02:41:42;106.93;;;42.03;;
54464;SDS011;40374;49.480;20.016;2022-12-29T02:44:28;90.68;;;38.25;;
54464;SDS011;40374;49.480;20.016;2022-12-29T02:50:02;124.93;;;46.88;;
54464;SDS011;40374;49.480;20.016;2022-12-29T02:52:37;118.90;;;46.28;;
54464;SDS011;40374;49.480;20.016;2022-12-29T02:55:11;112.80;;;46.60;;
54464;SDS011;40374;49.480;20.016;2022-12-29T02:57:38;110.72;;;46.15;;
54464;SDS011;40374;49.480;20.016;2022-12-29T03:02:55;114.88;;;46.05;;
54464;SDS011;40374;49.480;20.016;2022-12-29T03:11:19;98.95;;;38.45;;
54464;SDS011;40374;49.480;20.016;2022-12-29T03:17:26;98.90;;;37.33;;
54464;SDS011;40374;49.480;20.016;2022-12-29T03:20:02;95.22;;;35.80;;
54464;SDS011;40374;49.480;20.016;2022-12-29T03:22:39;76.47;;;34.60;;
54464;SDS011;40374;49.480;20.016;2022-12-29T03:25:18;135.93;;;44.97;;
54464;SDS011;40374;49.480;20.016;2022-12-29T03:27:54;92.15;;;35.38;;
54464;SDS011;40374;49.480;20.016;2022-12-29T03:30:34;85.75;;;30.67;;
54464;SDS011;40374;49.480;20.016;2022-12-29T03:33:04;76.03;;;29.50;;
54464;SDS011;40374;49.480;20.016;2022-12-29T03:35:38;73.20;;;29.83;;
54464;SDS011;40374;49.480;20.016;2022-12-29T03:38:24;80.53;;;30.20;;
54464;SDS011;40374;49.480;20.016;2022-12-29T03:41:00;78.35;;;30.73;;
54464;SDS011;40374;49.480;20.016;2022-12-29T03:43:33;68.70;;;29.00;;
54464;SDS011;40374;49.480;20.016;2022-12-29T03:46:00;78.07;;;32.33;;
54464;SDS011;40374;49.480;20.016;2022-12-29T03:48:28;78.38;;;32.15;;
54464;SDS011;40374;49.480;20.016;2022-12-29T03:50:56;87.15;;;36.55;;
54464;SDS011;40374;49.480;20.016;2022-12-29T03:53:23;88.60;;;37.85;;
54464;SDS011;40374;49.480;20.016;2022-12-29T03:55:51;81.20;;;34.08;;
54464;SDS011;40374;49.480;20.016;2022-12-29T03:58:18;91.45;;;33.90;;
54464;SDS011;40374;49.480;20.016;2022-12-29T04:01:08;68.50;;;30.80;;
54464;SDS011;40374;49.480;20.016;2022-12-29T04:03:37;85.95;;;31.55;;
54464;SDS011;40374;49.480;20.016;2022-12-29T04:06:06;82.88;;;30.50;;
54464;SDS011;40374;49.480;20.016;2022-12-29T04:09:00;59.58;;;24.58;;
54464;SDS011;40374;49.480;20.016;2022-12-29T04:11:32;55.90;;;22.50;;
54464;SDS011;40374;49.480;20.016;2022-12-29T04:14:02;51.53;;;20.85;;
54464;SDS011;40374;49.480;20.016;2022-12-29T04:16:31;52.65;;;19.33;;
54464;SDS011;40374;49.480;20.016;2022-12-29T04:19:05;46.10;;;19.15;;
54464;SDS011;40374;49.480;20.016;2022-12-29T04:21:35;50.17;;;20.77;;
54464;SDS011;40374;49.480;20.016;2022-12-29T04:24:05;53.20;;;21.58;;
54464;SDS011;40374;49.480;20.016;2022-12-29T04:26:38;50.47;;;21.33;;
54464;SDS011;40374;49.480;20.016;2022-12-29T04:29:21;52.35;;;20.40;;
54464;SDS011;40374;49.480;20.016;2022-12-29T04:32:04;51.67;;;19.65;;
54464;SDS011;40374;49.480;20.016;2022-12-29T04:34:37;57.88;;;20.33;;
54464;SDS011;40374;49.480;20.016;2022-12-29T04:37:04;52.53;;;21.45;;
54464;SDS011;40374;49.480;20.016;2022-12-29T04:39:32;54.58;;;20.85;;
54464;SDS011;40374;49.480;20.016;2022-12-29T04:42:02;48.45;;;20.80;;
54464;SDS011;40374;49.480;20.016;2022-12-29T04:44:29;56.78;;;20.95;;
54464;SDS011;40374;49.480;20.016;2022-12-29T04:47:17;53.58;;;19.38;;
54464;SDS011;40374;49.480;20.016;2022-12-29T04:50:10;50.78;;;20.73;;
54464;SDS011;40374;49.480;20.016;2022-12-29T04:52:42;81.70;;;29.00;;
54464;SDS011;40374;49.480;20.016;2022-12-29T04:55:12;78.15;;;29.58;;
54464;SDS011;40374;49.480;20.016;2022-12-29T04:57:40;99.88;;;36.88;;
54464;SDS011;40374;49.480;20.016;2022-12-29T05:00:10;75.15;;;31.42;;
54464;SDS011;40374;49.480;20.016;2022-12-29T05:02:38;81.43;;;32.20;;
54464;SDS011;40374;49.480;20.016;2022-12-29T05:05:06;90.65;;;35.58;;
54464;SDS011;40374;49.480;20.016;2022-12-29T05:07:38;80.47;;;34.97;;
54464;SDS011;40374;49.480;20.016;2022-12-29T05:10:05;85.13;;;34.53;;
54464;SDS011;40374;49.480;20.016;2022-12-29T05:12:34;92.90;;;36.60;;
54464;SDS011;40374;49.480;20.016;2022-12-29T05:15:03;91.53;;;35.40;;
54464;SDS011;40374;49.480;20.016;2022-12-29T05:20:45;124.68;;;47.88;;
54464;SDS011;40374;49.480;20.016;2022-12-29T05:23:13;106.55;;;41.50;;
54464;SDS011;40374;49.480;20.016;2022-12-29T05:25:43;102.57;;;40.85;;
54464;SDS011;40374;49.480;20.016;2022-12-29T05:28:16;88.45;;;36.10;;
54464;SDS011;40374;49.480;20.016;2022-12-29T05:30:58;98.13;;;38.45;;
54464;SDS011;40374;49.480;20.016;2022-12-29T05:33:26;97.03;;;36.45;;
54464;SDS011;40374;49.480;20.016;2022-12-29T05:35:54;157.60;;;60.78;;
54464;SDS011;40374;49.480;20.016;2022-12-29T05:38:22;160.90;;;58.60;;
54464;SDS011;40374;49.480;20.016;2022-12-29T05:40:50;184.77;;;60.58;;
54464;SDS011;40374;49.480;20.016;2022-12-29T05:43:38;150.68;;;55.45;;
54464;SDS011;40374;49.480;20.016;2022-12-29T05:46:28;125.93;;;46.00;;
54464;SDS011;40374;49.480;20.016;2022-12-29T05:49:16;109.45;;;42.13;;
54464;SDS011;40374;49.480;20.016;2022-12-29T05:55:08;123.07;;;45.90;;
54464;SDS011;40374;49.480;20.016;2022-12-29T05:57:37;134.68;;;46.20;;
54464;SDS011;40374;49.480;20.016;2022-12-29T06:00:09;149.68;;;58.08;;
54464;SDS011;40374;49.480;20.016;2022-12-29T06:02:41;106.88;;;44.20;;
54464;SDS011;40374;49.480;20.016;2022-12-29T06:05:09;121.35;;;48.83;;
54464;SDS011;40374;49.480;20.016;2022-12-29T06:07:38;88.95;;;35.63;;
54464;SDS011;40374;49.480;20.016;2022-12-29T06:10:06;89.78;;;33.83;;
54464;SDS011;40374;49.480;20.016;2022-12-29T06:12:43;76.80;;;27.10;;
54464;SDS011;40374;49.480;20.016;2022-12-29T06:15:11;77.43;;;28.17;;
54464;SDS011;40374;49.480;20.016;2022-12-29T06:17:40;97.93;;;39.72;;
54464;SDS011;40374;49.480;20.016;2022-12-29T06:20:08;87.97;;;38.13;;
54464;SDS011;40374;49.480;20.016;2022-12-29T06:22:37;83.95;;;32.45;;
54464;SDS011;40374;49.480;20.016;2022-12-29T06:25:05;76.85;;;31.85;;
54464;SDS011;40374;49.480;20.016;2022-12-29T06:27:34;73.68;;;32.63;;
54464;SDS011;40374;49.480;20.016;2022-12-29T06:30:01;72.30;;;32.95;;
54464;SDS011;40374;49.480;20.016;2022-12-29T06:32:30;103.20;;;34.60;;
54464;SDS011;40374;49.480;20.016;2022-12-29T06:35:03;106.82;;;37.05;;
54464;SDS011;40374;49.480;20.016;2022-12-29T06:37:36;103.93;;;37.33;;
54464;SDS011;40374;49.480;20.016;2022-12-29T06:40:04;108.80;;;40.55;;
54464;SDS011;40374;49.480;20.016;2022-12-29T06:42:49;125.25;;;42.55;;
54464;SDS011;40374;49.480;20.016;2022-12-29T06:45:33;132.27;;;43.20;;
54464;SDS011;40374;49.480;20.016;2022-12-29T06:48:01;157.30;;;56.80;;
54464;SDS011;40374;49.480;20.016;2022-12-29T06:50:28;155.02;;;56.08;;
54464;SDS011;40374;49.480;20.016;2022-12-29T06:52:56;224.95;;;77.50;;
54464;SDS011;40374;49.480;20.016;2022-12-29T06:55:23;208.35;;;77.38;;
54464;SDS011;40374;49.480;20.016;2022-12-29T06:57:53;208.10;;;77.10;;
54464;SDS011;40374;49.480;20.016;2022-12-29T07:00:23;139.52;;;51.00;;
54464;SDS011;40374;49.480;20.016;2022-12-29T07:02:51;161.38;;;56.67;;
54464;SDS011;40374;49.480;20.016;2022-12-29T07:05:19;201.38;;;61.67;;
54464;SDS011;40374;49.480;20.016;2022-12-29T07:07:47;186.95;;;64.50;;
54464;SDS011;40374;49.480;20.016;2022-12-29T07:10:14;174.50;;;65.75;;
54464;SDS011;40374;49.480;20.016;2022-12-29T07:12:43;164.57;;;63.92;;
54464;SDS011;40374;49.480;20.016;2022-12-29T07:15:10;151.43;;;61.88;;
54464;SDS011;40374;49.480;20.016;2022-12-29T07:17:38;177.35;;;64.80;;
54464;SDS011;40374;49.480;20.016;2022-12-29T07:20:06;181.00;;;68.40;;
54464;SDS011;40374;49.480;20.016;2022-12-29T07:22:34;163.02;;;66.25;;
54464;SDS011;40374;49.480;20.016;2022-12-29T07:25:02;179.50;;;68.07;;
54464;SDS011;40374;49.480;20.016;2022-12-29T07:27:30;157.82;;;63.00;;
54464;SDS011;40374;49.480;20.016;2022-12-29T07:29:58;179.45;;;66.88;;
54464;SDS011;40374;49.480;20.016;2022-12-29T07:32:25;181.35;;;66.90;;
54464;SDS011;40374;49.480;20.016;2022-12-29T07:34:53;168.90;;;64.65;;
54464;SDS011;40374;49.480;20.016;2022-12-29T07:37:20;179.18;;;66.78;;
54464;SDS011;40374;49.480;20.016;2022-12-29T07:39:48;179.77;;;66.85;;
54464;SDS011;40374;49.480;20.016;2022-12-29T07:42:15;183.63;;;69.05;;
54464;SDS011;40374;49.480;20.016;2022-12-29T07:44:49;179.07;;;70.43;;
54464;SDS011;40374;49.480;20.016;2022-12-29T07:47:32;181.68;;;66.72;;
54464;SDS011;40374;49.480;20.016;2022-12-29T07:50:00;171.57;;;68.25;;
54464;SDS011;40374;49.480;20.016;2022-12-29T07:52:28;150.07;;;61.88;;
54464;SDS011;40374;49.480;20.016;2022-12-29T07:54:55;145.60;;;55.05;;
54464;SDS011;40374;49.480;20.016;2022-12-29T07:57:23;89.75;;;38.55;;
54464;SDS011;40374;49.480;20.016;2022-12-29T07:59:57;76.60;;;31.38;;
54464;SDS011;40374;49.480;20.016;2022-12-29T08:02:25;89.38;;;31.48;;
54464;SDS011;40374;49.480;20.016;2022-12-29T08:04:53;72.35;;;33.70;;
54464;SDS011;40374;49.480;20.016;2022-12-29T08:07:21;79.53;;;34.80;;
54464;SDS011;40374;49.480;20.016;2022-12-29T08:09:48;93.15;;;39.28;;
54464;SDS011;40374;49.480;20.016;2022-12-29T08:12:16;106.65;;;44.65;;
54464;SDS011;40374;49.480;20.016;2022-12-29T08:14:43;106.78;;;41.47;;
54464;SDS011;40374;49.480;20.016;2022-12-29T08:17:10;107.90;;;44.85;;
54464;SDS011;40374;49.480;20.016;2022-12-29T08:19:38;132.82;;;52.35;;
54464;SDS011;40374;49.480;20.016;2022-12-29T08:22:05;186.85;;;66.03;;
54464;SDS011;40374;49.480;20.016;2022-12-29T08:24:33;184.10;;;69.43;;
54464;SDS011;40374;49.480;20.016;2022-12-29T08:27:00;157.65;;;56.58;;
54464;SDS011;40374;49.480;20.016;2022-12-29T08:29:41;152.93;;;56.97;;
54464;SDS011;40374;49.480;20.016;2022-12-29T08:32:09;136.05;;;54.05;;
54464;SDS011;40374;49.480;20.016;2022-12-29T08:34:37;92.05;;;41.67;;
54464;SDS011;40374;49.480;20.016;2022-12-29T08:37:04;100.68;;;39.88;;
54464;SDS011;40374;49.480;20.016;2022-12-29T08:39:32;85.97;;;34.10;;
54464;SDS011;40374;49.480;20.016;2022-12-29T08:41:59;97.75;;;39.90;;
54464;SDS011;40374;49.480;20.016;2022-12-29T08:44:26;108.93;;;41.50;;
54464;SDS011;40374;49.480;20.016;2022-12-29T08:46:54;129.88;;;51.97;;
54464;SDS011;40374;49.480;20.016;2022-12-29T08:49:21;166.52;;;60.90;;
54464;SDS011;40374;49.480;20.016;2022-12-29T08:51:50;127.45;;;50.25;;
54464;SDS011;40374;49.480;20.016;2022-12-29T08:54:17;102.40;;;41.58;;
54464;SDS011;40374;49.480;20.016;2022-12-29T08:56:45;91.68;;;37.75;;
54464;SDS011;40374;49.480;20.016;2022-12-29T08:59:14;85.97;;;37.35;;
54464;SDS011;40374;49.480;20.016;2022-12-29T09:01:43;111.82;;;44.05;;
54464;SDS011;40374;49.480;20.016;2022-12-29T09:04:10;122.32;;;47.75;;
54464;SDS011;40374;49.480;20.016;2022-12-29T09:06:42;128.20;;;49.88;;
54464;SDS011;40374;49.480;20.016;2022-12-29T09:09:10;109.15;;;45.22;;
54464;SDS011;40374;49.480;20.016;2022-12-29T09:11:38;114.18;;;42.60;;
54464;SDS011;40374;49.480;20.016;2022-12-29T09:14:06;93.00;;;38.38;;
54464;SDS011;40374;49.480;20.016;2022-12-29T09:16:34;98.00;;;40.22;;
54464;SDS011;40374;49.480;20.016;2022-12-29T09:19:02;155.43;;;60.38;;
54464;SDS011;40374;49.480;20.016;2022-12-29T09:21:31;162.57;;;60.83;;
54464;SDS011;40374;49.480;20.016;2022-12-29T09:23:58;114.15;;;48.85;;
54464;SDS011;40374;49.480;20.016;2022-12-29T09:26:26;139.50;;;56.67;;
54464;SDS011;40374;49.480;20.016;2022-12-29T09:28:53;105.90;;;48.00;;
54464;SDS011;40374;49.480;20.016;2022-12-29T09:31:21;92.50;;;38.22;;
54464;SDS011;40374;49.480;20.016;2022-12-29T09:33:49;75.30;;;34.05;;
54464;SDS011;40374;49.480;20.016;2022-12-29T09:36:16;73.03;;;32.55;;
54464;SDS011;40374;49.480;20.016;2022-12-29T09:38:44;67.20;;;29.73;;
54464;SDS011;40374;49.480;20.016;2022-12-29T09:41:18;84.88;;;36.03;;
54464;SDS011;40374;49.480;20.016;2022-12-29T09:44:11;104.10;;;36.08;;
54464;SDS011;40374;49.480;20.016;2022-12-29T09:46:48;82.45;;;31.85;;
54464;SDS011;40374;49.480;20.016;2022-12-29T09:49:21;60.90;;;22.95;;
54464;SDS011;40374;49.480;20.016;2022-12-29T09:52:03;76.30;;;23.02;;
54464;SDS011;40374;49.480;20.016;2022-12-29T10:00:16;72.03;;;22.88;;
54464;SDS011;40374;49.480;20.016;2022-12-29T10:02:52;72.05;;;23.88;;
54464;SDS011;40374;49.480;20.016;2022-12-29T10:25:47;84.60;;;27.38;;
54464;SDS011;40374;49.480;20.016;2022-12-29T10:28:21;23.80;;;10.60;;
54464;SDS011;40374;49.480;20.016;2022-12-29T10:30:51;32.58;;;13.18;;
54464;SDS011;40374;49.480;20.016;2022-12-29T10:33:22;70.93;;;22.35;;
54464;SDS011;40374;49.480;20.016;2022-12-29T10:35:57;69.30;;;23.33;;
54464;SDS011;40374;49.480;20.016;2022-12-29T10:43:48;38.75;;;17.02;;
54464;SDS011;40374;49.480;20.016;2022-12-29T10:46:20;36.88;;;16.02;;
54464;SDS011;40374;49.480;20.016;2022-12-29T10:48:50;163.23;;;56.72;;
54464;SDS011;40374;49.480;20.016;2022-12-29T10:51:22;154.25;;;57.10;;
54464;SDS011;40374;49.480;20.016;2022-12-29T10:56:40;97.38;;;40.28;;
54464;SDS011;40374;49.480;20.016;2022-12-29T10:59:23;118.75;;;47.55;;
54464;SDS011;40374;49.480;20.016;2022-12-29T11:01:55;177.20;;;69.13;;
54464;SDS011;40374;49.480;20.016;2022-12-29T11:07:21;55.85;;;24.33;;
54464;SDS011;40374;49.480;20.016;2022-12-29T11:09:53;171.38;;;67.97;;
54464;SDS011;40374;49.480;20.016;2022-12-29T11:15:15;183.95;;;73.88;;
54464;SDS011;40374;49.480;20.016;2022-12-29T11:17:46;202.90;;;80.82;;
54464;SDS011;40374;49.480;20.016;2022-12-29T11:22:57;200.82;;;60.42;;
54464;SDS011;40374;49.480;20.016;2022-12-29T11:25:25;122.25;;;39.50;;
54464;SDS011;40374;49.480;20.016;2022-12-29T11:30:29;93.93;;;37.20;;
54464;SDS011;40374;49.480;20.016;2022-12-29T11:32:58;114.00;;;46.03;;
54464;SDS011;40374;49.480;20.016;2022-12-29T11:35:32;70.72;;;32.60;;
54464;SDS011;40374;49.480;20.016;2022-12-29T11:40:43;54.53;;;25.90;;
54464;SDS011;40374;49.480;20.016;2022-12-29T11:43:17;60.25;;;23.73;;
54464;SDS011;40374;49.480;20.016;2022-12-29T11:45:54;45.65;;;20.13;;
54464;SDS011;40374;49.480;20.016;2022-12-29T11:48:23;75.10;;;26.35;;
54464;SDS011;40374;49.480;20.016;2022-12-29T11:50:55;50.83;;;19.50;;
54464;SDS011;40374;49.480;20.016;2022-12-29T11:53:31;51.35;;;18.90;;
54464;SDS011;40374;49.480;20.016;2022-12-29T11:56:11;46.70;;;18.42;;
54464;SDS011;40374;49.480;20.016;2022-12-29T11:58:44;79.18;;;27.65;;
54464;SDS011;40374;49.480;20.016;2022-12-29T12:01:22;51.78;;;19.50;;
54464;SDS011;40374;49.480;20.016;2022-12-29T12:04:00;26.45;;;11.57;;
54464;SDS011;40374;49.480;20.016;2022-12-29T12:06:31;27.65;;;11.02;;
54464;SDS011;40374;49.480;20.016;2022-12-29T12:09:19;27.00;;;11.00;;
54464;SDS011;40374;49.480;20.016;2022-12-29T12:11:54;24.23;;;11.85;;
54464;SDS011;40374;49.480;20.016;2022-12-29T12:14:26;33.53;;;13.32;;
54464;SDS011;40374;49.480;20.016;2022-12-29T12:20:38;50.53;;;21.88;;
54464;SDS011;40374;49.480;20.016;2022-12-29T12:26:35;78.40;;;30.02;;
54464;SDS011;40374;49.480;20.016;2022-12-29T12:29:19;77.75;;;27.77;;
54464;SDS011;40374;49.480;20.016;2022-12-29T12:31:56;280.30;;;93.55;;
54464;SDS011;40374;49.480;20.016;2022-12-29T12:34:30;150.55;;;48.40;;
54464;SDS011;40374;49.480;20.016;2022-12-29T12:42:44;83.55;;;26.73;;
54464;SDS011;40374;49.480;20.016;2022-12-29T12:45:51;81.03;;;26.08;;
54464;SDS011;40374;49.480;20.016;2022-12-29T13:00:26;111.18;;;35.53;;
54464;SDS011;40374;49.480;20.016;2022-12-29T13:05:38;50.38;;;21.50;;
54464;SDS011;40374;49.480;20.016;2022-12-29T13:11:28;57.70;;;25.10;;
54464;SDS011;40374;49.480;20.016;2022-12-29T13:27:49;105.47;;;44.85;;
54464;SDS011;40374;49.480;20.016;2022-12-29T13:30:23;100.65;;;43.95;;
54464;SDS011;40374;49.480;20.016;2022-12-29T13:33:18;103.70;;;44.20;;
54464;SDS011;40374;49.480;20.016;2022-12-29T13:36:02;87.10;;;38.35;;
54464;SDS011;40374;49.480;20.016;2022-12-29T13:38:40;80.38;;;34.25;;
54464;SDS011;40374;49.480;20.016;2022-12-29T13:41:16;91.53;;;35.22;;
54464;SDS011;40374;49.480;20.016;2022-12-29T13:43:54;92.13;;;36.53;;
54464;SDS011;40374;49.480;20.016;2022-12-29T13:46:28;96.85;;;36.70;;
54464;SDS011;40374;49.480;20.016;2022-12-29T13:49:07;102.18;;;39.78;;
54464;SDS011;40374;49.480;20.016;2022-12-29T13:51:46;104.78;;;44.13;;
54464;SDS011;40374;49.480;20.016;2022-12-29T13:54:25;92.65;;;37.53;;
54464;SDS011;40374;49.480;20.016;2022-12-29T13:57:08;90.18;;;38.08;;
54464;SDS011;40374;49.480;20.016;2022-12-29T14:05:33;82.97;;;36.38;;
54464;SDS011;40374;49.480;20.016;2022-12-29T14:08:03;91.65;;;40.65;;
54464;SDS011;40374;49.480;20.016;2022-12-29T14:10:45;105.97;;;46.80;;
54464;SDS011;40374;49.480;20.016;2022-12-29T14:13:18;158.65;;;64.72;;
54464;SDS011;40374;49.480;20.016;2022-12-29T14:15:55;104.32;;;42.63;;
54464;SDS011;40374;49.480;20.016;2022-12-29T14:18:29;129.43;;;48.40;;
54464;SDS011;40374;49.480;20.016;2022-12-29T14:26:13;98.80;;;39.42;;
54464;SDS011;40374;49.480;20.016;2022-12-29T14:29:45;84.97;;;32.65;;
54464;SDS011;40374;49.480;20.016;2022-12-29T14:31:52;72.72;;;27.88;;
54464;SDS011;40374;49.480;20.016;2022-12-29T14:36:57;67.65;;;31.30;;
54464;SDS011;40374;49.480;20.016;2022-12-29T14:44:49;69.07;;;29.17;;
54464;SDS011;40374;49.480;20.016;2022-12-29T14:47:31;80.65;;;31.83;;
54464;SDS011;40374;49.480;20.016;2022-12-29T14:50:37;101.13;;;41.97;;
54464;SDS011;40374;49.480;20.016;2022-12-29T14:53:53;84.00;;;32.05;;
54464;SDS011;40374;49.480;20.016;2022-12-29T14:56:16;81.45;;;35.80;;
54464;SDS011;40374;49.480;20.016;2022-12-29T14:58:56;62.30;;;26.42;;
54464;SDS011;40374;49.480;20.016;2022-12-29T15:01:24;95.43;;;42.88;;
54464;SDS011;40374;49.480;20.016;2022-12-29T15:03:54;108.63;;;46.75;;
54464;SDS011;40374;49.480;20.016;2022-12-29T15:06:27;95.38;;;40.80;;
54464;SDS011;40374;49.480;20.016;2022-12-29T15:09:03;106.88;;;40.50;;
54464;SDS011;40374;49.480;20.016;2022-12-29T15:17:00;48.97;;;20.67;;
54464;SDS011;40374;49.480;20.016;2022-12-29T15:19:28;71.70;;;26.90;;
54464;SDS011;40374;49.480;20.016;2022-12-29T15:21:56;78.95;;;32.60;;
54464;SDS011;40374;49.480;20.016;2022-12-29T15:24:24;66.15;;;28.50;;
54464;SDS011;40374;49.480;20.016;2022-12-29T15:26:53;126.03;;;49.80;;
54464;SDS011;40374;49.480;20.016;2022-12-29T15:29:30;152.68;;;54.03;;
54464;SDS011;40374;49.480;20.016;2022-12-29T15:32:15;99.88;;;39.55;;
54464;SDS011;40374;49.480;20.016;2022-12-29T15:34:49;103.35;;;42.17;;
54464;SDS011;40374;49.480;20.016;2022-12-29T15:37:23;68.38;;;31.65;;
54464;SDS011;40374;49.480;20.016;2022-12-29T15:39:53;94.53;;;40.38;;
54464;SDS011;40374;49.480;20.016;2022-12-29T15:44:52;118.75;;;43.55;;
54464;SDS011;40374;49.480;20.016;2022-12-29T15:47:35;119.35;;;43.47;;
54464;SDS011;40374;49.480;20.016;2022-12-29T15:50:05;119.60;;;44.28;;
54464;SDS011;40374;49.480;20.016;2022-12-29T15:52:36;90.82;;;36.88;;
54464;SDS011;40374;49.480;20.016;2022-12-29T15:55:10;93.60;;;37.42;;
54464;SDS011;40374;49.480;20.016;2022-12-29T15:57:51;102.63;;;40.28;;
54464;SDS011;40374;49.480;20.016;2022-12-29T16:00:26;93.82;;;38.20;;
54464;SDS011;40374;49.480;20.016;2022-12-29T16:02:58;105.65;;;42.08;;
54464;SDS011;40374;49.480;20.016;2022-12-29T16:05:36;112.75;;;44.17;;
54464;SDS011;40374;49.480;20.016;2022-12-29T16:10:48;129.48;;;51.00;;
54464;SDS011;40374;49.480;20.016;2022-12-29T16:13:34;121.28;;;52.75;;
54464;SDS011;40374;49.480;20.016;2022-12-29T16:16:16;124.43;;;51.40;;
54464;SDS011;40374;49.480;20.016;2022-12-29T16:18:49;140.23;;;57.70;;
54464;SDS011;40374;49.480;20.016;2022-12-29T16:21:25;145.63;;;61.15;;
54464;SDS011;40374;49.480;20.016;2022-12-29T16:23:57;145.93;;;59.75;;
54464;SDS011;40374;49.480;20.016;2022-12-29T16:26:29;148.85;;;64.63;;
54464;SDS011;40374;49.480;20.016;2022-12-29T16:28:57;155.98;;;65.85;;
54464;SDS011;40374;49.480;20.016;2022-12-29T16:34:22;180.45;;;76.32;;
54464;SDS011;40374;49.480;20.016;2022-12-29T16:36:58;205.98;;;90.63;;
54464;SDS011;40374;49.480;20.016;2022-12-29T16:50:35;185.85;;;83.88;;
54464;SDS011;40374;49.480;20.016;2022-12-29T16:53:05;195.88;;;85.05;;
54464;SDS011;40374;49.480;20.016;2022-12-29T16:55:46;202.70;;;93.07;;
54464;SDS011;40374;49.480;20.016;2022-12-29T16:58:18;223.45;;;95.32;;
54464;SDS011;40374;49.480;20.016;2022-12-29T17:00:58;242.48;;;104.93;;
54464;SDS011;40374;49.480;20.016;2022-12-29T17:03:34;252.48;;;109.45;;
54464;SDS011;40374;49.480;20.016;2022-12-29T17:06:06;271.65;;;113.43;;
54464;SDS011;40374;49.480;20.016;2022-12-29T17:08:41;276.67;;;119.20;;
54464;SDS011;40374;49.480;20.016;2022-12-29T17:11:21;282.00;;;120.32;;
54464;SDS011;40374;49.480;20.016;2022-12-29T17:17:15;299.98;;;122.95;;
54464;SDS011;40374;49.480;20.016;2022-12-29T17:19:51;286.55;;;120.45;;
54464;SDS011;40374;49.480;20.016;2022-12-29T17:24:53;587.65;;;282.35;;
54464;SDS011;40374;49.480;20.016;2022-12-29T17:29:55;528.13;;;259.55;;
54464;SDS011;40374;49.480;20.016;2022-12-29T17:32:25;401.50;;;179.00;;
54464;SDS011;40374;49.480;20.016;2022-12-29T17:34:53;454.38;;;207.48;;
54464;SDS011;40374;49.480;20.016;2022-12-29T17:39:55;437.67;;;179.00;;
54464;SDS011;40374;49.480;20.016;2022-12-29T17:42:22;322.17;;;131.82;;
54464;SDS011;40374;49.480;20.016;2022-12-29T17:44:50;310.55;;;121.35;;
54464;SDS011;40374;49.480;20.016;2022-12-29T17:47:17;335.85;;;143.90;;
54464;SDS011;40374;49.480;20.016;2022-12-29T17:49:44;230.32;;;93.40;;
54464;SDS011;40374;49.480;20.016;2022-12-29T17:52:12;166.30;;;68.07;;